Time;durP1;ratioP1;P1;durP2;ratioP2;P2;SDS_P1;SDS_P2;PMS_P1;PMS_P2;Temp;Humidity;BMP_temperature;BMP_pressure;BME280_temperature;BME280_humidity;BME280_pressure;Samples;Min_cycle;Max_cycle;Signal;HPM_P1;HPM_P2
2022/09/25 00:00:34;;;;;;;1999.90;999.90;;;6.90;99.90;;;;;;5013795;28;20096;-65
2022/09/25 00:03:00;;;;;;;1999.90;999.90;;;6.90;99.90;;;;;;5021407;28;20545;-65
2022/09/25 00:05:25;;;;;;;1999.90;999.90;;;6.90;99.90;;;;;;5015384;28;20061;-65
2022/09/25 00:07:52;;;;;;;1999.90;999.90;;;6.90;99.90;;;;;;5026499;28;20116;-65
2022/09/25 00:10:18;;;;;;;1999.90;999.90;;;6.90;99.90;;;;;;5023944;28;20067;-65
2022/09/25 00:12:44;;;;;;;1999.90;999.90;;;6.90;99.90;;;;;;5018531;28;20056;-65
2022/09/25 00:15:10;;;;;;;1999.90;999.90;;;6.90;99.90;;;;;;5012746;28;20403;-65
2022/09/25 00:17:36;;;;;;;1999.90;999.90;;;6.90;99.90;;;;;;5028955;28;20096;-65
2022/09/25 00:20:01;;;;;;;1999.90;999.90;;;6.80;99.90;;;;;;5028748;28;20058;-65
2022/09/25 00:22:29;;;;;;;1999.90;999.90;;;6.80;99.90;;;;;;5024888;28;20371;-65
2022/09/25 00:24:55;;;;;;;1999.90;999.90;;;6.70;99.90;;;;;;5008947;28;20598;-65
2022/09/25 00:27:20;;;;;;;1999.90;999.90;;;6.70;99.90;;;;;;5022140;28;20049;-65
2022/09/25 00:29:46;;;;;;;1999.90;999.90;;;6.70;99.90;;;;;;5020259;28;20034;-65
2022/09/25 00:32:12;;;;;;;1999.90;999.90;;;6.70;99.90;;;;;;5027441;28;20119;-65
2022/09/25 00:34:39;;;;;;;1999.90;999.90;;;6.60;99.90;;;;;;5045745;28;20044;-65
2022/09/25 00:37:05;;;;;;;1999.90;999.90;;;6.60;99.90;;;;;;5017893;28;20535;-65
2022/09/25 00:39:31;;;;;;;1999.90;999.90;;;6.60;99.90;;;;;;5029233;28;20095;-65
2022/09/25 00:41:58;;;;;;;1999.90;999.90;;;6.60;99.90;;;;;;5024229;28;20041;-65
2022/09/25 00:44:42;;;;;;;1999.90;999.90;;;6.60;99.90;;;;;;5037439;28;20052;-65
2022/09/25 00:47:11;;;;;;;1999.90;999.90;;;6.60;99.90;;;;;;5016585;28;20045;-65
2022/09/25 00:49:36;;;;;;;1999.90;999.90;;;6.60;99.90;;;;;;5037686;28;20431;-65
2022/09/25 00:52:05;;;;;;;1999.90;999.90;;;6.60;99.90;;;;;;5032468;28;20123;-65
2022/09/25 00:54:38;;;;;;;1999.90;999.90;;;6.70;99.90;;;;;;5036463;28;20720;-65
2022/09/25 00:57:07;;;;;;;1999.90;999.90;;;6.80;99.90;;;;;;5026740;28;20038;-65
2022/09/25 00:59:40;;;;;;;1999.90;999.90;;;6.90;99.90;;;;;;5030319;28;20072;-65
2022/09/25 01:02:12;;;;;;;1999.90;999.90;;;6.90;99.90;;;;;;5021465;28;20116;-65
2022/09/25 01:04:40;;;;;;;1999.90;999.90;;;6.90;99.90;;;;;;5028692;28;20181;-65
2022/09/25 01:07:07;;;;;;;1999.90;999.90;;;6.90;99.90;;;;;;5010503;28;20056;-65
2022/09/25 01:09:34;;;;;;;1999.90;999.90;;;6.90;99.90;;;;;;5039050;28;20810;-65
2022/09/25 01:12:00;;;;;;;1999.90;999.90;;;6.90;99.90;;;;;;5020557;28;20054;-65
2022/09/25 01:14:26;;;;;;;1999.90;999.90;;;6.90;99.90;;;;;;5008917;28;20065;-65
2022/09/25 01:17:18;;;;;;;1999.90;999.90;;;6.90;99.90;;;;;;5041992;28;20123;-65
2022/09/25 01:20:15;;;;;;;1999.90;999.90;;;6.90;99.90;;;;;;5020475;28;20499;-65
2022/09/25 01:23:03;;;;;;;1999.90;999.90;;;6.90;99.90;;;;;;5032941;28;20039;-65
2022/09/25 01:26:03;;;;;;;1999.90;999.90;;;6.80;99.90;;;;;;5017388;28;20405;-65
2022/09/25 01:28:40;;;;;;;1999.90;999.90;;;6.80;99.90;;;;;;5012419;28;20107;-65
2022/09/25 01:31:25;;;;;;;1999.90;999.90;;;6.80;99.90;;;;;;5024342;28;20069;-65
2022/09/25 01:33:56;;;;;;;1999.90;999.90;;;6.80;99.90;;;;;;5007325;28;20050;-65
2022/09/25 01:36:37;;;;;;;1999.90;999.90;;;6.80;99.90;;;;;;5014510;28;20042;-65
2022/09/25 01:39:28;;;;;;;1999.90;999.90;;;6.80;99.90;;;;;;5009915;28;20049;-65
2022/09/25 01:42:07;;;;;;;1999.90;999.90;;;6.70;99.90;;;;;;5019100;28;20492;-65
2022/09/25 01:44:56;;;;;;;1999.90;999.90;;;6.70;99.90;;;;;;5015886;28;20391;-65
2022/09/25 01:47:32;;;;;;;1999.90;999.90;;;6.70;99.90;;;;;;5014504;28;20484;-65
2022/09/25 01:50:07;;;;;;;1999.90;999.90;;;6.70;99.90;;;;;;5017704;28;20073;-65
2022/09/25 01:52:41;;;;;;;1999.90;999.90;;;6.70;99.90;;;;;;5021453;28;20044;-65
2022/09/25 01:55:18;;;;;;;1999.90;999.90;;;6.70;99.90;;;;;;5022925;28;20041;-65
2022/09/25 01:58:00;;;;;;;1999.90;999.90;;;6.80;99.90;;;;;;5018287;28;20046;-65
2022/09/25 02:00:26;;;;;;;1999.90;999.90;;;6.90;99.90;;;;;;5027339;28;20049;-65
2022/09/25 02:03:04;;;;;;;1999.90;999.90;;;6.90;99.90;;;;;;5018911;28;20447;-65
2022/09/25 02:05:39;;;;;;;1999.90;999.90;;;6.90;99.90;;;;;;5020785;28;20041;-65
2022/09/25 02:08:12;;;;;;;1999.90;999.90;;;6.90;99.90;;;;;;5017359;28;20184;-65
2022/09/25 02:10:46;;;;;;;1999.90;999.90;;;6.90;99.90;;;;;;5012927;28;20088;-65
2022/09/25 02:13:16;;;;;;;1999.90;999.90;;;6.90;99.90;;;;;;5023258;28;20037;-65
2022/09/25 02:15:58;;;;;;;1999.90;999.90;;;6.90;99.90;;;;;;5013776;28;20053;-65
2022/09/25 02:21:25;;;;;;;1999.90;999.90;;;6.70;99.90;;;;;;5018810;28;20042;-65
2022/09/25 02:24:15;;;;;;;1999.90;999.90;;;6.70;99.90;;;;;;5009531;28;20041;-65
2022/09/25 02:26:41;;;;;;;1999.90;999.90;;;6.80;99.90;;;;;;5011375;28;20145;-65
2022/09/25 02:29:07;;;;;;;1999.90;999.90;;;6.80;99.90;;;;;;5022635;28;20132;-65
2022/09/25 02:32:04;;;;;;;1999.90;999.90;;;6.80;99.90;;;;;;5010146;28;20068;-65
2022/09/25 02:34:31;;;;;;;1999.90;999.90;;;6.80;99.90;;;;;;4998600;28;20049;-65
2022/09/25 02:36:57;;;;;;;1999.90;999.90;;;6.80;99.90;;;;;;5017455;28;20057;-65
2022/09/25 02:39:28;;;;;;;1999.90;999.90;;;6.80;99.90;;;;;;5022798;28;20140;-65
2022/09/25 02:42:12;;;;;;;1999.90;999.90;;;6.80;99.90;;;;;;5027897;28;20108;-65
2022/09/25 02:45:11;;;;;;;1999.90;999.90;;;6.80;99.90;;;;;;5022183;28;20045;-65
2022/09/25 02:47:51;;;;;;;1999.90;999.90;;;6.70;99.90;;;;;;5016949;28;20109;-65
2022/09/25 02:50:36;;;;;;;1999.90;999.90;;;6.60;99.90;;;;;;5039658;28;20072;-65
2022/09/25 02:53:21;;;;;;;1999.90;999.90;;;6.60;99.90;;;;;;5020467;28;20569;-65
2022/09/25 02:56:04;;;;;;;1999.90;999.90;;;6.50;99.90;;;;;;5019066;28;20055;-65
2022/09/25 02:58:42;;;;;;;1999.90;999.90;;;6.50;99.90;;;;;;5020459;28;20041;-66
2022/09/25 03:01:12;;;;;;;1999.90;999.90;;;6.40;99.90;;;;;;5023573;28;20052;-65
2022/09/25 03:03:40;;;;;;;1999.90;999.90;;;6.40;99.90;;;;;;5024586;28;20042;-65
2022/09/25 03:06:07;;;;;;;1999.90;999.90;;;6.40;99.90;;;;;;5024000;28;20172;-65
2022/09/25 03:08:37;;;;;;;1999.90;999.90;;;6.30;99.90;;;;;;5009231;28;20088;-65
2022/09/25 03:11:14;;;;;;;1999.90;999.90;;;6.30;99.90;;;;;;5025347;28;20060;-65
2022/09/25 03:13:40;;;;;;;1999.90;999.90;;;6.30;99.90;;;;;;5013176;28;20124;-65
2022/09/25 03:16:19;;;;;;;1999.90;999.90;;;6.30;99.90;;;;;;5016005;28;20041;-65
2022/09/25 03:18:48;;;;;;;1999.90;999.90;;;6.30;99.90;;;;;;5011484;28;20041;-65
2022/09/25 03:21:14;;;;;;;1999.90;999.90;;;6.30;99.90;;;;;;5030521;28;20073;-65
2022/09/25 03:23:39;;;;;;;1999.90;999.90;;;6.30;99.90;;;;;;5020531;28;20472;-65
2022/09/25 03:26:06;;;;;;;1999.90;999.90;;;6.30;99.90;;;;;;5022969;28;20041;-65
2022/09/25 03:28:32;;;;;;;1999.90;999.90;;;6.40;99.90;;;;;;5021834;28;20053;-65
2022/09/25 03:31:04;;;;;;;1999.90;999.90;;;6.50;99.90;;;;;;5011183;28;20083;-65
2022/09/25 03:33:35;;;;;;;1999.90;999.90;;;6.60;99.90;;;;;;5039784;28;20494;-65
2022/09/25 03:36:12;;;;;;;1999.90;999.90;;;6.60;99.90;;;;;;5017322;28;20038;-65
2022/09/25 03:38:40;;;;;;;1999.90;999.90;;;6.60;99.90;;;;;;5018964;28;20505;-65
2022/09/25 03:41:07;;;;;;;1999.90;999.90;;;6.70;99.90;;;;;;5024183;28;20049;-65
2022/09/25 03:43:35;;;;;;;1999.90;999.90;;;6.70;99.90;;;;;;5010829;28;20503;-65
2022/09/25 03:46:06;;;;;;;1999.90;999.90;;;6.70;99.90;;;;;;5027170;28;20057;-65
2022/09/25 03:48:32;;;;;;;1999.90;999.90;;;6.60;99.90;;;;;;5015808;28;20124;-65
2022/09/25 03:50:59;;;;;;;1999.90;999.90;;;6.60;99.90;;;;;;5029900;28;20056;-65
2022/09/25 03:53:25;;;;;;;1999.90;999.90;;;6.50;99.90;;;;;;5014080;28;20057;-65
2022/09/25 03:55:51;;;;;;;1999.90;999.90;;;6.50;99.90;;;;;;5022206;28;20056;-65
2022/09/25 03:58:17;;;;;;;1999.90;999.90;;;6.50;99.90;;;;;;5013700;28;20091;-65
2022/09/25 04:00:44;;;;;;;1999.90;999.90;;;6.40;99.90;;;;;;5041695;28;20041;-65
2022/09/25 04:03:14;;;;;;;1999.90;999.90;;;6.40;99.90;;;;;;5040898;28;20112;-65
2022/09/25 04:05:41;;;;;;;1999.90;999.90;;;6.30;99.90;;;;;;5028195;28;20410;-65
2022/09/25 04:08:06;;;;;;;1999.90;999.90;;;6.30;99.90;;;;;;5024050;28;20042;-65
2022/09/25 04:10:33;;;;;;;1999.90;999.90;;;6.20;99.90;;;;;;5020606;28;20048;-65
2022/09/25 04:12:59;;;;;;;1999.90;999.90;;;6.20;99.90;;;;;;5016769;28;20060;-65
2022/09/25 04:15:25;;;;;;;1999.90;999.90;;;6.20;99.90;;;;;;5025328;28;20049;-65
2022/09/25 04:17:51;;;;;;;1999.90;999.90;;;6.10;99.90;;;;;;5024182;28;20029;-65
2022/09/25 04:20:18;;;;;;;1999.90;999.90;;;6.10;99.90;;;;;;5039361;28;20072;-65
2022/09/25 04:22:43;;;;;;;1999.90;999.90;;;6.10;99.90;;;;;;5033568;28;20077;-65
2022/09/25 04:25:09;;;;;;;1999.90;999.90;;;6.10;99.90;;;;;;5036398;28;20088;-65
2022/09/25 04:27:35;;;;;;;1999.90;999.90;;;6.00;99.90;;;;;;5010961;28;20041;-65
2022/09/25 04:30:02;;;;;;;1999.90;999.90;;;6.00;99.90;;;;;;5014833;28;20512;-65
2022/09/25 04:35:12;;;;;;;1999.90;999.90;;;5.90;99.90;;;;;;5033845;28;20064;-65
2022/09/25 04:37:38;;;;;;;1999.90;999.90;;;6.00;99.90;;;;;;5015754;28;20581;-65
2022/09/25 04:40:04;;;;;;;1999.90;999.90;;;6.00;99.90;;;;;;5033420;28;20041;-65
2022/09/25 04:42:29;;;;;;;1999.90;999.90;;;5.90;99.90;;;;;;5030497;28;20116;-65
2022/09/25 04:44:56;;;;;;;1999.90;999.90;;;5.90;99.90;;;;;;5028675;28;20489;-65
2022/09/25 04:47:23;;;;;;;1999.90;999.90;;;5.90;99.90;;;;;;5038757;28;20053;-65
2022/09/25 04:49:49;;;;;;;1999.90;999.90;;;5.90;99.90;;;;;;5038087;28;20052;-65
2022/09/25 04:52:16;;;;;;;1999.90;999.90;;;5.80;99.90;;;;;;5021575;28;20493;-65
2022/09/25 04:54:42;;;;;;;1999.90;999.90;;;5.80;99.90;;;;;;5032675;28;20172;-65
2022/09/25 04:57:19;;;;;;;1999.90;999.90;;;5.80;99.90;;;;;;5015092;28;20109;-65
2022/09/25 04:59:45;;;;;;;1999.90;999.90;;;5.80;99.90;;;;;;5019428;28;20128;-65
2022/09/25 05:02:14;;;;;;;1999.90;999.90;;;5.80;99.90;;;;;;5030123;28;20131;-65
2022/09/25 05:04:39;;;;;;;1999.90;999.90;;;5.80;99.90;;;;;;5046373;28;20044;-65
2022/09/25 05:07:05;;;;;;;1999.90;999.90;;;5.80;99.90;;;;;;5033850;28;20128;-65
2022/09/25 05:09:31;;;;;;;1999.90;999.90;;;5.70;99.90;;;;;;5012953;28;20124;-65
2022/09/25 05:11:57;;;;;;;1999.90;999.90;;;5.80;99.90;;;;;;5018328;28;20041;-65
2022/09/25 05:14:23;;;;;;;1999.90;999.90;;;5.70;99.90;;;;;;5031940;28;20069;-65
2022/09/25 05:16:49;;;;;;;1999.90;999.90;;;5.70;99.90;;;;;;5032774;28;20040;-65
2022/09/25 05:19:15;;;;;;;1999.90;999.90;;;5.70;99.90;;;;;;5033997;28;20040;-65
2022/09/25 05:21:41;;;;;;;1999.90;999.90;;;5.70;99.90;;;;;;5030131;28;20208;-65
2022/09/25 05:24:07;;;;;;;1999.90;999.90;;;5.70;99.90;;;;;;5015931;28;20054;-65
2022/09/25 05:26:34;;;;;;;1999.90;999.90;;;5.70;99.90;;;;;;5030761;28;20060;-65
2022/09/25 05:29:00;;;;;;;1999.90;999.90;;;5.70;99.90;;;;;;5025095;28;20100;-65
2022/09/25 05:31:26;;;;;;;1999.90;999.90;;;5.70;99.90;;;;;;5038300;28;20089;-65
2022/09/25 05:33:52;;;;;;;1999.90;999.90;;;5.70;99.90;;;;;;5021014;28;20104;-65
2022/09/25 05:36:19;;;;;;;1999.90;999.90;;;5.70;99.90;;;;;;5037949;28;20406;-65
2022/09/25 05:38:44;;;;;;;1999.90;999.90;;;5.80;99.90;;;;;;5028579;28;20367;-65
2022/09/25 05:41:10;;;;;;;1999.90;999.90;;;5.80;99.90;;;;;;5030079;28;20085;-65
2022/09/25 05:43:46;;;;;;;1999.90;999.90;;;5.80;99.90;;;;;;5007697;28;20049;-66
2022/09/25 05:46:12;;;;;;;1999.90;999.90;;;5.90;99.90;;;;;;5015053;28;20449;-65
2022/09/25 05:48:39;;;;;;;1999.90;999.90;;;6.00;99.90;;;;;;5010787;28;20061;-65
2022/09/25 05:51:05;;;;;;;1999.90;999.90;;;6.00;99.90;;;;;;5017423;28;20092;-65
2022/09/25 05:53:31;;;;;;;1999.90;999.90;;;6.00;99.90;;;;;;5013950;28;20042;-65
2022/09/25 05:56:02;;;;;;;1999.90;999.90;;;6.00;99.90;;;;;;5018483;28;20038;-65
2022/09/25 05:58:29;;;;;;;1999.90;999.90;;;6.00;99.90;;;;;;5030828;28;20048;-65
2022/09/25 06:00:58;;;;;;;1999.90;999.90;;;5.90;99.90;;;;;;5024672;28;20048;-65
2022/09/25 06:03:27;;;;;;;1999.90;999.90;;;6.00;99.90;;;;;;5018670;28;20473;-65
2022/09/25 06:05:58;;;;;;;1999.90;999.90;;;6.00;99.90;;;;;;5018359;28;20071;-65
2022/09/25 06:08:24;;;;;;;1999.90;999.90;;;6.00;99.90;;;;;;5021454;28;20163;-65
2022/09/25 06:10:53;;;;;;;1999.90;999.90;;;6.00;99.90;;;;;;5027846;28;20045;-65
2022/09/25 06:13:20;;;;;;;1999.90;999.90;;;6.00;99.90;;;;;;4991424;28;20042;-65
2022/09/25 06:15:49;;;;;;;1999.90;999.90;;;6.00;99.90;;;;;;5028430;28;20092;-65
2022/09/25 06:18:15;;;;;;;1999.90;999.90;;;6.10;99.90;;;;;;5026303;28;20397;-65
2022/09/25 06:20:40;;;;;;;1999.90;999.90;;;6.10;99.90;;;;;;5021744;28;20052;-65
2022/09/25 06:23:06;;;;;;;1999.90;999.90;;;6.10;99.90;;;;;;5025996;28;20045;-65
2022/09/25 06:25:31;;;;;;;1999.90;999.90;;;6.20;99.90;;;;;;5024274;28;20111;-66
2022/09/25 06:27:59;;;;;;;1999.90;999.90;;;6.20;99.90;;;;;;5022197;28;20044;-65
2022/09/25 06:30:33;;;;;;;1999.90;999.90;;;6.30;99.90;;;;;;5026960;28;20136;-65
2022/09/25 06:33:08;;;;;;;1999.90;999.90;;;6.40;99.90;;;;;;5025523;28;20056;-65
2022/09/25 06:35:34;;;;;;;1999.90;999.90;;;6.50;99.90;;;;;;5032354;28;20441;-65
2022/09/25 06:38:01;;;;;;;1999.90;999.90;;;6.60;99.90;;;;;;5013872;28;20025;-66
2022/09/25 06:40:30;;;;;;;1999.90;999.90;;;6.80;99.90;;;;;;5018522;28;20048;-65
2022/09/25 06:43:03;;;;;;;1999.90;999.90;;;7.10;99.90;;;;;;5038570;28;20048;-66
2022/09/25 06:45:32;;;;;;;1999.90;999.90;;;7.40;99.90;;;;;;5027499;28;20048;-66
2022/09/25 06:48:09;;;;;;;1999.90;999.90;;;7.60;99.90;;;;;;5018966;28;20067;-66
2022/09/25 06:50:37;;;;;;;1999.90;999.90;;;7.70;99.90;;;;;;5028041;28;20089;-66
2022/09/25 06:53:03;;;;;;;1999.90;999.90;;;8.00;99.90;;;;;;5009802;28;20458;-66
2022/09/25 06:55:36;;;;;;;1999.90;999.90;;;8.20;99.90;;;;;;5027730;28;20053;-66
2022/09/25 06:58:03;;;;;;;1999.90;999.90;;;8.30;99.90;;;;;;5014235;28;20044;-65
2022/09/25 07:00:29;;;;;;;1999.90;999.90;;;8.50;99.90;;;;;;5009720;28;20563;-66
2022/09/25 07:05:46;;;;;;;1999.90;999.90;;;8.90;99.90;;;;;;5018637;28;20073;-65
2022/09/25 07:08:16;;;;;;;1999.90;999.90;;;9.20;99.90;;;;;;5012989;28;20056;-66
2022/09/25 07:10:56;;;;;;;1999.90;999.90;;;9.50;99.90;;;;;;5013342;28;20049;-66
2022/09/25 07:13:24;;;;;;;1999.90;999.90;;;9.90;99.90;;;;;;5027421;28;20160;-66
2022/09/25 07:15:54;;;;;;;1999.90;999.90;;;10.00;99.90;;;;;;5026469;28;20053;-66
2022/09/25 07:18:24;;;;;;;1999.90;999.90;;;10.10;99.90;;;;;;5017979;28;20094;-66
2022/09/25 07:20:51;;;;;;;1999.90;999.90;;;10.20;99.90;;;;;;5023947;28;20414;-66
2022/09/25 07:23:19;;;;;;;1999.90;999.90;;;10.20;99.90;;;;;;5024292;28;20041;-66
2022/09/25 07:25:46;;;;;;;1999.90;999.90;;;10.50;99.90;;;;;;5025865;28;20067;-66
2022/09/25 07:28:12;;;;;;;1999.90;999.90;;;10.60;99.90;;;;;;5023802;28;20038;-66
2022/09/25 07:30:39;;;;;;;1999.90;999.90;;;10.80;99.90;;;;;;5011566;28;20052;-65
2022/09/25 07:33:04;;;;;;;1999.90;999.90;;;11.00;99.90;;;;;;5039420;28;20056;-66
2022/09/25 07:35:30;;;;;;;1999.90;999.90;;;11.10;99.90;;;;;;5019384;28;20037;-66
2022/09/25 07:37:59;;;;;;;1999.90;999.90;;;11.30;99.90;;;;;;5018035;28;20046;-66
2022/09/25 07:40:28;;;;;;;1999.90;999.90;;;11.30;99.90;;;;;;5010273;28;20568;-66
2022/09/25 07:43:03;;;;;;;1999.90;999.90;;;11.40;99.90;;;;;;5014566;28;20124;-66
2022/09/25 07:45:30;;;;;;;1999.90;999.90;;;11.50;99.90;;;;;;5018745;28;20834;-66
2022/09/25 07:48:00;;;;;;;1999.90;999.90;;;11.50;99.90;;;;;;5014288;28;20478;-66
2022/09/25 07:50:27;;;;;;;1999.90;999.90;;;11.50;99.90;;;;;;5020636;28;20152;-66
2022/09/25 07:52:53;;;;;;;1999.90;999.90;;;11.50;99.90;;;;;;5014947;28;20476;-66
2022/09/25 07:55:18;;;;;;;1999.90;999.90;;;11.50;99.90;;;;;;5005574;28;20047;-66
2022/09/25 07:57:44;;;;;;;1999.90;999.90;;;11.60;99.90;;;;;;5012811;28;20042;-66
2022/09/25 08:00:11;;;;;;;1999.90;999.90;;;11.70;99.90;;;;;;5008824;28;20038;-66
2022/09/25 08:02:37;;;;;;;1999.90;999.90;;;11.80;99.90;;;;;;5036335;28;20144;-66
2022/09/25 08:05:03;;;;;;;1999.90;999.90;;;12.00;99.90;;;;;;5031949;28;20045;-66
2022/09/25 08:07:28;;;;;;;1999.90;999.90;;;12.20;99.90;;;;;;5007439;28;20050;-66
2022/09/25 08:09:54;;;;;;;1999.90;999.90;;;12.40;99.90;;;;;;5017919;28;20045;-66
2022/09/25 08:12:23;;;;;;;1999.90;999.90;;;12.60;99.90;;;;;;5014105;28;20067;-66
2022/09/25 08:14:49;;;;;;;1999.90;999.90;;;12.80;99.90;;;;;;5025879;28;20053;-66
2022/09/25 08:17:14;;;;;;;1999.90;999.90;;;12.80;99.90;;;;;;5043150;28;20041;-67
2022/09/25 08:19:40;;;;;;;1999.90;999.90;;;12.80;99.90;;;;;;5022569;28;20042;-66
2022/09/25 08:22:05;;;;;;;1999.90;999.90;;;12.70;99.90;;;;;;5023555;28;20052;-66
2022/09/25 08:24:31;;;;;;;1999.90;999.90;;;12.70;99.90;;;;;;5028231;28;20037;-66
2022/09/25 08:26:56;;;;;;;1999.90;999.90;;;12.50;99.90;;;;;;5019217;28;20049;-67
2022/09/25 08:29:23;;;;;;;1999.90;999.90;;;12.40;99.90;;;;;;5033997;28;20068;-66
2022/09/25 08:31:49;;;;;;;1999.90;999.90;;;12.10;99.90;;;;;;5031214;28;20187;-66
2022/09/25 08:34:15;;;;;;;1999.90;999.90;;;12.10;99.90;;;;;;5029193;28;20053;-66
2022/09/25 08:36:41;;;;;;;1999.90;999.90;;;12.10;99.90;;;;;;5018741;28;20057;-66
2022/09/25 08:39:06;;;;;;;1999.90;999.90;;;12.10;99.90;;;;;;5010910;28;20050;-66
2022/09/25 08:41:43;;;;;;;1999.90;999.90;;;12.20;99.90;;;;;;5011171;28;20500;-66
2022/09/25 08:44:37;;;;;;;1999.90;999.90;;;12.30;99.90;;;;;;5026070;28;20038;-67
2022/09/25 08:50:15;;;;;;;1999.90;999.90;;;12.50;99.90;;;;;;5038448;28;20045;-67
2022/09/25 08:52:44;;;;;;;1999.90;999.90;;;12.60;99.90;;;;;;5024633;28;20417;-67
2022/09/25 08:55:21;;;;;;;1999.90;999.90;;;12.70;99.90;;;;;;5023364;28;20073;-66
2022/09/25 08:57:47;;;;;;;1999.90;999.90;;;12.80;99.90;;;;;;5038160;28;20053;-66
2022/09/25 09:00:21;;;;;;;1999.90;999.90;;;13.80;99.90;;;;;;5009399;28;20416;-67
2022/09/25 09:02:52;;;;;;;1999.90;999.90;;;15.00;99.90;;;;;;5015564;28;20052;-67
2022/09/25 09:05:23;;;;;;;1999.90;999.90;;;16.00;99.90;;;;;;5020200;28;20045;-66
2022/09/25 09:07:54;;;;;;;1999.90;999.90;;;16.80;99.90;;;;;;5023810;28;20490;-67
2022/09/25 09:10:38;;;;;;;1999.90;999.90;;;17.50;99.90;;;;;;5022524;28;20508;-66
2022/09/25 09:13:36;;;;;;;1999.90;999.90;;;18.10;99.90;;;;;;5025493;28;20083;-67
2022/09/25 09:16:25;;;;;;;1999.90;999.90;;;18.60;99.90;;;;;;5020616;28;20046;-67
2022/09/25 09:18:52;;;;;;;1999.90;999.90;;;19.00;99.90;;;;;;5017059;28;20065;-66
2022/09/25 09:21:31;;;;;;;1999.90;999.90;;;19.10;99.90;;;;;;5023208;28;20052;-67
2022/09/25 09:24:08;;;;;;;1999.90;999.90;;;19.30;99.90;;;;;;5014879;28;20038;-67
2022/09/25 09:26:50;;;;;;;1999.90;999.90;;;19.20;99.90;;;;;;5009700;28;20041;-67
2022/09/25 09:29:24;;;;;;;1999.90;999.90;;;19.20;99.90;;;;;;5015718;28;20029;-67
2022/09/25 09:32:15;;;;;;;1999.90;999.90;;;18.90;99.90;;;;;;5028115;28;20125;-67
2022/09/25 09:35:03;;;;;;;1999.90;999.90;;;18.90;99.90;;;;;;5041219;28;20042;-67
2022/09/25 09:37:52;;;;;;;1999.90;999.90;;;18.40;99.90;;;;;;5009388;28;20037;-67
2022/09/25 09:40:27;;;;;;;1999.90;999.90;;;18.10;99.90;;;;;;5021182;28;20070;-66
2022/09/25 09:43:18;;;;;;;1999.90;999.90;;;18.40;99.90;;;;;;5020481;28;20064;-67
2022/09/25 09:45:51;;;;;;;1999.90;999.90;;;18.60;99.90;;;;;;5022453;28;20063;-67
2022/09/25 09:48:38;;;;;;;1999.90;999.90;;;18.50;99.90;;;;;;5035209;28;20060;-67
2022/09/25 09:51:14;;;;;;;1999.90;999.90;;;18.10;99.90;;;;;;5034639;28;20037;-67
2022/09/25 09:53:51;;;;;;;1999.90;999.90;;;17.50;99.90;;;;;;5038424;28;20116;-67
2022/09/25 09:56:23;;;;;;;1999.90;999.90;;;17.00;99.90;;;;;;5027396;28;20045;-67
2022/09/25 09:58:58;;;;;;;1999.90;999.90;;;16.60;99.90;;;;;;5025080;28;20041;-67
2022/09/25 10:01:28;;;;;;;1999.90;999.90;;;16.30;99.90;;;;;;5014465;28;20042;-67
2022/09/25 10:04:19;;;;;;;1999.90;999.90;;;16.10;99.90;;;;;;5025185;28;20167;-67
2022/09/25 10:06:49;;;;;;;1999.90;999.90;;;16.00;99.90;;;;;;5027864;28;20111;-66
2022/09/25 10:09:16;;;;;;;1999.90;999.90;;;15.70;99.90;;;;;;5021139;28;20452;-66
2022/09/25 10:11:47;;;;;;;1999.90;999.90;;;15.50;99.90;;;;;;5014798;28;20077;-66
2022/09/25 10:14:19;;;;;;;1999.90;999.90;;;15.40;99.90;;;;;;5032661;28;20046;-66
2022/09/25 10:16:50;;;;;;;1999.90;999.90;;;15.30;99.90;;;;;;5028632;28;20053;-67
2022/09/25 10:19:22;;;;;;;1999.90;999.90;;;15.20;99.90;;;;;;5021273;28;20038;-66
2022/09/25 10:21:58;;;;;;;1999.90;999.90;;;15.20;99.90;;;;;;5028727;28;20077;-66
2022/09/25 10:24:53;;;;;;;1999.90;999.90;;;15.20;99.90;;;;;;5028605;28;20056;-66
2022/09/25 10:27:42;;;;;;;1999.90;999.90;;;15.20;99.90;;;;;;5021917;28;20056;-66
2022/09/25 10:30:08;;;;;;;1999.90;999.90;;;15.20;99.90;;;;;;5020332;28;20383;-66
2022/09/25 10:32:59;;;;;;;1999.90;999.90;;;15.20;99.90;;;;;;5008495;28;20057;-66
2022/09/25 10:35:41;;;;;;;1999.90;999.90;;;15.30;99.90;;;;;;5025511;28;20589;-66
2022/09/25 10:38:35;;;;;;;1999.90;999.90;;;15.50;99.90;;;;;;5014783;28;20045;-66
2022/09/25 10:41:20;;;;;;;1999.90;999.90;;;15.80;99.90;;;;;;5026978;28;20075;-66
2022/09/25 10:43:55;;;;;;;1999.90;999.90;;;16.20;99.90;;;;;;5009087;28;20091;-66
2022/09/25 10:52:11;;;;;;;1999.90;999.90;;;16.50;99.90;;;;;;5008474;28;20116;-66
2022/09/25 10:54:37;;;;;;;1999.90;999.90;;;16.50;99.90;;;;;;5009277;28;20061;-66
2022/09/25 10:57:33;;;;;;;1999.90;999.90;;;16.60;99.90;;;;;;5007960;28;20124;-66
2022/09/25 11:00:01;;;;;;;1999.90;999.90;;;16.60;99.90;;;;;;5019947;28;20053;-66
2022/09/25 11:02:40;;;;;;;1999.90;999.90;;;16.50;99.90;;;;;;5020796;28;20676;-66
2022/09/25 11:05:15;;;;;;;1999.90;999.90;;;16.40;99.90;;;;;;5022390;28;20037;-66
2022/09/25 11:07:51;;;;;;;1999.90;999.90;;;16.40;99.90;;;;;;5028331;28;20082;-66
2022/09/25 11:10:30;;;;;;;1999.90;999.90;;;16.40;99.90;;;;;;5017995;28;20082;-66
2022/09/25 11:12:57;;;;;;;1999.90;999.90;;;16.40;99.90;;;;;;5023802;28;20688;-66
2022/09/25 11:15:26;;;;;;;1999.90;999.90;;;16.50;99.90;;;;;;5025032;28;20061;-66
2022/09/25 11:17:56;;;;;;;1999.90;999.90;;;16.60;99.90;;;;;;5044350;28;20122;-66
2022/09/25 11:20:29;;;;;;;1999.90;999.90;;;16.80;99.90;;;;;;5029510;28;20069;-66
2022/09/25 11:23:28;;;;;;;1999.90;999.90;;;17.00;99.90;;;;;;5027195;28;20041;-66
2022/09/25 11:26:08;;;;;;;1999.90;999.90;;;17.40;99.90;;;;;;5022094;28;20053;-66
2022/09/25 11:28:51;;;;;;;1999.90;999.90;;;17.60;99.90;;;;;;5021592;28;20416;-66
2022/09/25 11:31:28;;;;;;;1999.90;999.90;;;17.50;99.90;;;;;;5023687;28;20060;-66
2022/09/25 11:34:16;;;;;;;1999.90;999.90;;;17.30;99.90;;;;;;4998752;28;20041;-66
2022/09/25 11:36:48;;;;;;;1999.90;999.90;;;17.10;99.90;;;;;;5012328;28;20057;-66
2022/09/25 11:42:37;;;;;;;1999.90;999.90;;;17.00;99.90;;;;;;5028893;28;20728;-66
2022/09/25 11:45:13;;;;;;;1999.90;999.90;;;17.10;99.90;;;;;;5027002;28;20152;-66
2022/09/25 11:47:55;;;;;;;1999.90;999.90;;;17.30;99.90;;;;;;5022032;28;20051;-66
2022/09/25 11:50:26;;;;;;;1999.90;999.90;;;17.40;99.90;;;;;;5026586;28;20034;-66
2022/09/25 11:53:17;;;;;;;1999.90;999.90;;;17.50;99.90;;;;;;5028712;28;20045;-66
2022/09/25 11:55:48;;;;;;;1999.90;999.90;;;17.40;99.90;;;;;;5020608;28;20112;-66
2022/09/25 11:58:36;;;;;;;1999.90;999.90;;;17.30;99.90;;;;;;5043035;28;20507;-66
2022/09/25 12:01:23;;;;;;;1999.90;999.90;;;17.60;99.90;;;;;;5022869;28;20565;-65
2022/09/25 12:04:00;;;;;;;1999.90;999.90;;;17.80;99.90;;;;;;5021889;28;20045;-66
2022/09/25 12:06:38;;;;;;;1999.90;999.90;;;17.90;99.90;;;;;;5027457;28;20056;-65
2022/09/25 12:09:26;;;;;;;1999.90;999.90;;;18.10;99.90;;;;;;5021860;28;20095;-66
2022/09/25 12:12:06;;;;;;;1999.90;999.90;;;18.10;99.90;;;;;;5015874;28;20546;-66
2022/09/25 12:14:50;;;;;;;1999.90;999.90;;;18.20;99.90;;;;;;5032543;28;20041;-66
2022/09/25 12:17:35;;;;;;;1999.90;999.90;;;18.40;99.90;;;;;;5018156;28;20490;-66
2022/09/25 12:20:44;;;;;;;1999.90;999.90;;;18.50;99.90;;;;;;5009956;28;20460;-66
2022/09/25 12:23:28;;;;;;;1999.90;999.90;;;18.60;99.90;;;;;;4976426;28;20046;-66
2022/09/25 12:26:18;;;;;;;1999.90;999.90;;;18.80;99.90;;;;;;4987503;28;20123;-66
2022/09/25 12:28:55;;;;;;;1999.90;999.90;;;18.90;99.90;;;;;;5020154;28;20049;-66
2022/09/25 12:31:58;;;;;;;1999.90;999.90;;;18.80;99.90;;;;;;5021021;28;20049;-66
2022/09/25 12:34:49;;;;;;;1999.90;999.90;;;18.50;99.90;;;;;;5027909;28;20065;-66
2022/09/25 12:37:42;;;;;;;1999.90;999.90;;;18.20;99.90;;;;;;5012925;28;20042;-65
2022/09/25 12:40:42;;;;;;;1999.90;999.90;;;18.00;99.90;;;;;;5028515;28;20042;-66
2022/09/25 12:43:40;;;;;;;1999.90;999.90;;;17.80;99.90;;;;;;5016243;28;20402;-66
2022/09/25 12:46:28;;;;;;;1999.90;999.90;;;17.40;99.90;;;;;;5026341;28;20425;-65
2022/09/25 12:49:15;;;;;;;1999.90;999.90;;;17.00;99.90;;;;;;5018456;28;20045;-65
2022/09/25 12:51:53;;;;;;;1999.90;999.90;;;16.60;99.90;;;;;;5028801;28;20072;-66